Time;durP1;ratioP1;P1;durP2;ratioP2;P2;SDS_P1;SDS_P2;PMS_P1;PMS_P2;Temp;Humidity;BMP_temperature;BMP_pressure;BME280_temperature;BME280_humidity;BME280_pressure;Samples;Min_cycle;Max_cycle;Signal;HPM_P1;HPM_P2
2020/12/04 00:02:49;;;;;;;;;;;-0.90;99.90;;;;;;8259216;28;19914;-73
2020/12/04 00:06:49;;;;;;;;;;;-1.10;99.90;;;;;;8258255;28;20005;-72
2020/12/04 00:10:49;;;;;;;;;;;-1.10;99.90;;;;;;8257290;28;20019;-72
2020/12/04 00:14:50;;;;;;;;;;;-1.10;99.90;;;;;;8256702;28;19921;-74
2020/12/04 00:18:50;;;;;;;;;;;-1.20;99.90;;;;;;8257060;28;19937;-73
2020/12/04 00:22:51;;;;;;;;;;;-1.20;99.90;;;;;;8256291;28;19952;-74
2020/12/04 00:26:51;;;;;;;;;;;-1.30;99.90;;;;;;8257771;28;19910;-72
2020/12/04 00:30:52;;;;;;;;;;;-1.40;99.90;;;;;;8257257;28;20313;-75
2020/12/04 00:34:52;;;;;;;;;;;-1.20;99.90;;;;;;8254002;28;19910;-71
2020/12/04 00:38:52;;;;;;;;;;;-1.20;99.90;;;;;;8269474;28;20135;-73
2020/12/04 00:42:53;;;;;;;;;;;-1.10;99.90;;;;;;8254687;28;19917;-74
2020/12/04 00:46:53;;;;;;;;;;;-1.10;99.90;;;;;;8256891;28;19952;-74
2020/12/04 00:50:54;;;;;;;;;;;-1.00;99.90;;;;;;8256590;28;19913;-72
2020/12/04 00:54:54;;;;;;;;;;;-1.10;99.90;;;;;;8256938;28;19910;-75
2020/12/04 00:58:55;;;;;;;;;;;-1.00;99.90;;;;;;8271325;28;19918;-76
2020/12/04 01:02:55;;;;;;;;;;;-1.10;99.90;;;;;;8255725;28;20009;-73
2020/12/04 01:06:55;;;;;;;;;;;-1.20;99.90;;;;;;8256316;28;20551;-74
2020/12/04 01:10:56;;;;;;;;;;;-1.20;99.90;;;;;;8256115;28;19976;-73
2020/12/04 01:14:57;;;;;;;;;;;-1.10;99.90;;;;;;8256362;28;19918;-74
2020/12/04 01:18:57;;;;;;;;;;;-1.00;99.90;;;;;;8255758;28;20001;-72
2020/12/04 01:22:58;;;;;;;;;;;-0.90;99.90;;;;;;8256372;28;19910;-73
2020/12/04 01:26:58;;;;;;;;;;;-1.00;99.90;;;;;;8254801;28;19968;-73
2020/12/04 01:30:59;;;;;;;;;;;-0.80;99.90;;;;;;8255668;28;20407;-73
2020/12/04 01:34:59;;;;;;;;;;;-0.70;99.90;;;;;;8255755;28;19914;-72
2020/12/04 01:39:00;;;;;;;;;;;-0.50;99.90;;;;;;8255446;28;19914;-72
2020/12/04 01:43:00;;;;;;;;;;;-0.60;99.90;;;;;;8255796;28;19964;-74
2020/12/04 01:47:01;;;;;;;;;;;-0.80;99.90;;;;;;8255173;28;19980;-72
2020/12/04 01:51:01;;;;;;;;;;;-0.80;99.90;;;;;;8254886;28;20390;-73
2020/12/04 01:55:02;;;;;;;;;;;-0.80;99.90;;;;;;8255233;28;19909;-73
2020/12/04 01:59:02;;;;;;;;;;;-0.90;99.90;;;;;;8253578;28;19917;-72
2020/12/04 02:03:03;;;;;;;;;;;-0.90;99.90;;;;;;8254478;28;19993;-75
2020/12/04 02:07:05;;;;;;;;;;;-0.80;99.90;;;;;;8250013;28;19909;-74
2020/12/04 02:11:13;;;;;;;;;;;-0.90;99.90;;;;;;8251268;28;19914;-75
2020/12/04 02:15:14;;;;;;;;;;;-0.90;99.90;;;;;;8249903;28;19921;-75
2020/12/04 02:19:15;;;;;;;;;;;-0.80;99.90;;;;;;8249991;28;19921;-74
2020/12/04 02:23:15;;;;;;;;;;;-0.90;99.90;;;;;;8251075;28;19937;-74
2020/12/04 02:27:16;;;;;;;;;;;-0.80;99.90;;;;;;8251074;28;20268;-72
2020/12/04 02:31:16;;;;;;;;;;;-0.70;99.90;;;;;;8250907;28;20566;-72
2020/12/04 02:35:17;;;;;;;;;;;-0.90;99.90;;;;;;8249794;28;19917;-73
2020/12/04 02:39:17;;;;;;;;;;;-1.00;99.90;;;;;;8250754;28;20529;-71
2020/12/04 02:43:18;;;;;;;;;;;-0.80;99.90;;;;;;8251014;28;19909;-72
2020/12/04 02:47:22;;;;;;;;;;;-0.80;99.90;;;;;;8249548;28;19910;-73
2020/12/04 02:51:23;;;;;;;;;;;-0.70;99.90;;;;;;8250291;28;19920;-73
2020/12/04 02:55:23;;;;;;;;;;;-0.90;99.90;;;;;;8249060;28;19965;-73
2020/12/04 02:59:24;;;;;;;;;;;-1.10;99.90;;;;;;8249647;28;19917;-74
2020/12/04 03:03:24;;;;;;;;;;;-0.90;99.90;;;;;;8249686;28;19965;-73
2020/12/04 03:07:24;;;;;;;;;;;-0.90;99.90;;;;;;8249372;28;20410;-74
2020/12/04 03:11:25;;;;;;;;;;;-0.90;99.90;;;;;;8265419;28;20523;-75
2020/12/04 03:15:25;;;;;;;;;;;-0.90;99.90;;;;;;8249595;28;19918;-73
2020/12/04 03:19:26;;;;;;;;;;;-1.10;99.90;;;;;;8235365;28;20425;-73
2020/12/04 03:23:26;;;;;;;;;;;-1.10;99.90;;;;;;8247782;28;20525;-73
2020/12/04 03:27:27;;;;;;;;;;;-1.00;99.90;;;;;;8249419;28;19910;-74
2020/12/04 03:31:27;;;;;;;;;;;-1.00;99.90;;;;;;8249426;28;19914;-73
2020/12/04 03:35:27;;;;;;;;;;;-1.00;99.90;;;;;;8249519;28;19914;-75
2020/12/04 03:39:28;;;;;;;;;;;-0.80;99.90;;;;;;8249490;28;19996;-75
2020/12/04 03:43:28;;;;;;;;;;;-0.80;99.90;;;;;;8249602;28;19910;-73
2020/12/04 03:47:29;;;;;;;;;;;-0.90;99.90;;;;;;8249195;28;19910;-72
2020/12/04 03:51:29;;;;;;;;;;;-0.90;99.90;;;;;;8248542;28;20764;-72
2020/12/04 03:55:30;;;;;;;;;;;-0.80;99.90;;;;;;8249238;28;19918;-72
2020/12/04 03:59:30;;;;;;;;;;;-0.80;99.90;;;;;;8264068;28;19910;-72
2020/12/04 04:03:31;;;;;;;;;;;-0.70;99.90;;;;;;8249082;28;19937;-73
2020/12/04 04:07:31;;;;;;;;;;;-0.70;99.90;;;;;;8249276;28;19941;-72
2020/12/04 04:11:32;;;;;;;;;;;-0.60;99.90;;;;;;8248738;28;20592;-76
2020/12/04 04:15:32;;;;;;;;;;;-0.50;99.90;;;;;;8248426;28;19953;-75
2020/12/04 04:19:33;;;;;;;;;;;-0.50;99.90;;;;;;8247359;28;20339;-73
2020/12/04 04:23:33;;;;;;;;;;;-0.50;99.90;;;;;;8248898;28;19910;-72
2020/12/04 04:27:34;;;;;;;;;;;-0.50;99.90;;;;;;8248602;28;19924;-72
2020/12/04 04:31:34;;;;;;;;;;;-0.50;99.90;;;;;;8246710;28;20291;-72
2020/12/04 04:35:35;;;;;;;;;;;-0.50;99.90;;;;;;8251871;28;20585;-73
2020/12/04 04:39:35;;;;;;;;;;;-0.60;99.90;;;;;;8253125;28;20642;-76
2020/12/04 04:43:35;;;;;;;;;;;-0.60;99.90;;;;;;8254484;28;19917;-74
2020/12/04 04:47:39;;;;;;;;;;;-0.60;99.90;;;;;;8254024;28;19910;-75
2020/12/04 04:51:41;;;;;;;;;;;-0.60;99.90;;;;;;8252165;28;19917;-73
2020/12/04 04:55:44;;;;;;;;;;;-0.30;99.90;;;;;;8239861;28;20564;-74
2020/12/04 04:59:45;;;;;;;;;;;-0.50;99.90;;;;;;8234664;28;19931;-74
2020/12/04 05:03:55;;;;;;;;;;;-0.50;99.90;;;;;;8253052;28;19918;-73
2020/12/04 05:08:08;;;;;;;;;;;-0.50;99.90;;;;;;8250228;28;19920;-72
2020/12/04 05:12:08;;;;;;;;;;;-0.30;99.90;;;;;;8244270;28;19921;-74
2020/12/04 05:16:26;;;;;;;;;;;-0.30;99.90;;;;;;8223906;28;19918;-72
2020/12/04 05:20:28;;;;;;;;;;;-0.30;99.90;;;;;;8221139;28;19917;-73
2020/12/04 05:24:28;;;;;;;;;;;-0.30;99.90;;;;;;8219693;28;19989;-74
2020/12/04 05:28:30;;;;;;;;;;;-0.30;99.90;;;;;;8242483;28;19941;-72
2020/12/04 05:32:30;;;;;;;;;;;-0.30;99.90;;;;;;8247490;28;19929;-74
2020/12/04 05:36:31;;;;;;;;;;;-0.40;99.90;;;;;;8240620;28;20129;-75
2020/12/04 05:40:32;;;;;;;;;;;-0.50;99.90;;;;;;8231139;28;19960;-72
2020/12/04 05:44:33;;;;;;;;;;;-0.50;99.90;;;;;;8232355;28;19913;-74
2020/12/04 05:48:33;;;;;;;;;;;-0.50;99.90;;;;;;8234928;28;19922;-72
2020/12/04 05:52:35;;;;;;;;;;;-0.50;99.90;;;;;;8237776;28;19918;-73
2020/12/04 05:56:36;;;;;;;;;;;-0.40;99.90;;;;;;8250914;28;19910;-74
2020/12/04 06:00:36;;;;;;;;;;;-0.40;99.90;;;;;;8245759;28;19918;-75
2020/12/04 06:04:37;;;;;;;;;;;-0.40;99.90;;;;;;8239337;28;19929;-74
2020/12/04 06:08:41;;;;;;;;;;;-0.50;99.90;;;;;;8250081;28;19914;-75
2020/12/04 06:12:49;;;;;;;;;;;-0.20;99.90;;;;;;8237400;28;19914;-72
2020/12/04 06:17:02;;;;;;;;;;;-0.10;99.90;;;;;;8219216;28;19965;-72
2020/12/04 06:21:02;;;;;;;;;;;-0.10;99.90;;;;;;8218698;28;19916;-72
2020/12/04 06:25:03;;;;;;;;;;;0.00;99.90;;;;;;8217154;28;19910;-73
2020/12/04 06:29:03;;;;;;;;;;;-0.30;99.90;;;;;;8218370;28;19958;-74
2020/12/04 06:33:04;;;;;;;;;;;-0.10;99.90;;;;;;8247294;28;20397;-74
2020/12/04 06:37:04;;;;;;;;;;;0.00;99.90;;;;;;8249066;28;20358;-75
2020/12/04 06:41:25;;;;;;;;;;;-0.20;99.90;;;;;;8243656;28;19917;-75
2020/12/04 06:45:44;;;;;;;;;;;-0.40;99.90;;;;;;8218012;28;20004;-74
2020/12/04 06:49:44;;;;;;;;;;;-0.30;99.90;;;;;;8218002;28;20265;-73
2020/12/04 06:53:54;;;;;;;;;;;-0.20;99.90;;;;;;8234216;28;19929;-72
2020/12/04 06:57:58;;;;;;;;;;;0.00;99.90;;;;;;8248951;28;19937;-73
2020/12/04 07:02:03;;;;;;;;;;;-0.10;99.90;;;;;;8248321;28;20553;-74
2020/12/04 07:06:03;;;;;;;;;;;-0.30;99.90;;;;;;8247959;28;19913;-74
2020/12/04 07:10:04;;;;;;;;;;;-0.30;99.90;;;;;;8242216;28;19909;-73
2020/12/04 07:14:04;;;;;;;;;;;-0.40;99.90;;;;;;8247848;28;19924;-73
2020/12/04 07:18:05;;;;;;;;;;;0.20;99.90;;;;;;8248291;28;20402;-74
2020/12/04 07:22:05;;;;;;;;;;;0.70;99.90;;;;;;8249204;28;19941;-73
2020/12/04 07:26:11;;;;;;;;;;;1.10;99.90;;;;;;8249190;28;19910;-74
2020/12/04 07:30:15;;;;;;;;;;;0.70;99.90;;;;;;8247150;28;19961;-73
2020/12/04 07:34:20;;;;;;;;;;;0.50;99.90;;;;;;8247019;28;19909;-72
2020/12/04 07:38:21;;;;;;;;;;;0.20;99.90;;;;;;8247971;28;19953;-72
2020/12/04 07:42:22;;;;;;;;;;;-0.10;99.90;;;;;;8247302;28;19914;-72
2020/12/04 07:46:22;;;;;;;;;;;0.00;99.90;;;;;;8247319;28;19917;-72
2020/12/04 07:50:23;;;;;;;;;;;0.30;99.90;;;;;;8247512;28;20406;-72
2020/12/04 07:54:24;;;;;;;;;;;0.40;99.90;;;;;;8248697;28;20017;-72
2020/12/04 07:58:25;;;;;;;;;;;0.50;99.90;;;;;;8248568;28;20359;-72
2020/12/04 08:02:27;;;;;;;;;;;0.60;99.90;;;;;;8247907;28;19910;-72
2020/12/04 08:06:27;;;;;;;;;;;0.80;99.90;;;;;;8248464;28;19916;-72
2020/12/04 08:10:28;;;;;;;;;;;0.70;99.90;;;;;;8251029;28;19914;-72
2020/12/04 08:14:29;;;;;;;;;;;0.80;99.90;;;;;;8253034;28;19929;-72
2020/12/04 08:18:30;;;;;;;;;;;1.00;99.90;;;;;;8253094;28;19913;-73
2020/12/04 08:22:31;;;;;;;;;;;1.20;99.90;;;;;;8273452;28;20433;-72
2020/12/04 08:26:32;;;;;;;;;;;1.10;99.90;;;;;;8255439;28;19909;-72
2020/12/04 08:30:38;;;;;;;;;;;1.20;99.90;;;;;;8269148;28;19985;-72
2020/12/04 08:34:41;;;;;;;;;;;1.40;99.90;;;;;;8254105;28;20000;-72
2020/12/04 08:38:48;;;;;;;;;;;1.60;99.90;;;;;;8253411;28;19961;-73
2020/12/04 08:42:49;;;;;;;;;;;1.50;99.90;;;;;;8247721;28;19920;-72
2020/12/04 08:46:50;;;;;;;;;;;1.50;99.90;;;;;;8237092;28;20005;-72
2020/12/04 08:50:55;;;;;;;;;;;1.70;99.90;;;;;;8250684;28;19917;-72
2020/12/04 08:54:55;;;;;;;;;;;1.70;99.90;;;;;;8253153;28;19945;-72
2020/12/04 08:58:56;;;;;;;;;;;1.90;99.90;;;;;;8252953;28;19917;-72
2020/12/04 09:02:56;;;;;;;;;;;2.20;99.90;;;;;;8252735;28;20320;-72
2020/12/04 09:06:57;;;;;;;;;;;2.60;99.90;;;;;;8252719;28;19964;-72
2020/12/04 09:10:57;;;;;;;;;;;2.90;99.90;;;;;;8252390;28;20374;-72
2020/12/04 09:14:58;;;;;;;;;;;2.90;99.90;;;;;;8246535;28;19921;-72
2020/12/04 09:18:58;;;;;;;;;;;2.90;99.90;;;;;;8252990;28;20086;-72
2020/12/04 09:22:58;;;;;;;;;;;2.70;99.90;;;;;;8233315;28;19921;-72
2020/12/04 09:26:59;;;;;;;;;;;2.50;99.90;;;;;;8255646;28;19996;-72
2020/12/04 09:30:59;;;;;;;;;;;2.50;99.90;;;;;;8265152;28;19967;-72
2020/12/04 09:35:00;;;;;;;;;;;2.40;99.90;;;;;;8269912;28;20073;-72
2020/12/04 09:39:01;;;;;;;;;;;2.50;99.90;;;;;;8264526;28;19914;-72
2020/12/04 09:43:01;;;;;;;;;;;2.50;99.90;;;;;;8264376;28;19909;-72
2020/12/04 09:47:02;;;;;;;;;;;2.50;99.90;;;;;;8264454;28;20339;-72
2020/12/04 09:51:02;;;;;;;;;;;2.50;99.90;;;;;;8261143;28;19973;-72
2020/12/04 09:55:03;;;;;;;;;;;2.50;99.90;;;;;;8264478;28;19914;-72
2020/12/04 09:59:03;;;;;;;;;;;2.50;99.90;;;;;;8264146;28;19916;-72
2020/12/04 10:03:04;;;;;;;;;;;2.40;99.90;;;;;;8263266;28;20294;-73
2020/12/04 10:07:05;;;;;;;;;;;2.40;99.90;;;;;;8258496;28;19914;-73
2020/12/04 10:11:08;;;;;;;;;;;2.20;99.90;;;;;;8254484;28;19939;-73
2020/12/04 10:15:09;;;;;;;;;;;2.30;99.90;;;;;;8260610;28;19961;-73
2020/12/04 10:19:13;;;;;;;;;;;2.40;99.90;;;;;;8262017;28;19928;-73
2020/12/04 10:23:14;;;;;;;;;;;2.60;99.90;;;;;;8262029;28;19941;-73
2020/12/04 10:27:14;;;;;;;;;;;2.60;99.90;;;;;;8261132;28;19910;-73
2020/12/04 10:31:15;;;;;;;;;;;2.40;99.90;;;;;;8262694;28;19918;-73
2020/12/04 10:35:15;;;;;;;;;;;2.60;99.90;;;;;;8261964;28;19917;-73
2020/12/04 10:39:16;;;;;;;;;;;2.60;99.90;;;;;;8263074;28;20298;-73
2020/12/04 10:43:16;;;;;;;;;;;2.60;99.90;;;;;;8263153;28;19918;-73
2020/12/04 10:47:17;;;;;;;;;;;2.70;99.90;;;;;;8263091;28;19964;-73
2020/12/04 10:51:21;;;;;;;;;;;2.80;99.90;;;;;;8260993;28;19924;-73
2020/12/04 10:55:21;;;;;;;;;;;3.00;99.90;;;;;;8262686;28;19968;-73
2020/12/04 10:59:22;;;;;;;;;;;3.10;99.90;;;;;;8262264;28;19913;-73
2020/12/04 11:07:23;;;;;;;;;;;2.90;99.90;;;;;;8262409;28;19964;-73
2020/12/04 11:11:27;;;;;;;;;;;3.00;99.90;;;;;;8261599;28;20440;-73
2020/12/04 11:15:28;;;;;;;;;;;3.10;99.90;;;;;;8262180;28;19918;-74
2020/12/04 11:19:28;;;;;;;;;;;3.10;99.90;;;;;;8262158;28;19940;-74
2020/12/04 11:23:29;;;;;;;;;;;3.10;99.90;;;;;;8250252;28;19993;-73
2020/12/04 11:27:29;;;;;;;;;;;3.20;99.90;;;;;;8260230;28;20008;-73
2020/12/04 11:31:30;;;;;;;;;;;3.20;99.90;;;;;;8257842;28;19925;-73
2020/12/04 11:35:30;;;;;;;;;;;3.30;99.90;;;;;;8252642;28;19918;-74
2020/12/04 11:39:31;;;;;;;;;;;3.10;99.90;;;;;;8260228;28;19918;-74
2020/12/04 11:43:31;;;;;;;;;;;3.10;99.90;;;;;;8260631;28;19913;-74
2020/12/04 11:47:33;;;;;;;;;;;3.10;99.90;;;;;;8260596;28;19914;-74
2020/12/04 11:51:33;;;;;;;;;;;2.80;99.90;;;;;;8261199;28;20005;-73
2020/12/04 11:55:34;;;;;;;;;;;2.80;99.90;;;;;;8261157;28;19909;-78
2020/12/04 11:59:34;;;;;;;;;;;2.70;99.90;;;;;;8258048;28;19909;-74
2020/12/04 12:03:35;;;;;;;;;;;2.80;99.90;;;;;;8257081;28;19953;-74
2020/12/04 12:07:35;;;;;;;;;;;2.90;99.90;;;;;;8261480;28;19910;-74
2020/12/04 12:11:36;;;;;;;;;;;3.00;99.90;;;;;;8261317;28;19936;-74
2020/12/04 12:15:36;;;;;;;;;;;2.90;99.90;;;;;;8261084;28;19918;-74
2020/12/04 12:19:37;;;;;;;;;;;2.70;99.90;;;;;;8256147;28;20292;-73
2020/12/04 12:23:39;;;;;;;;;;;2.80;99.90;;;;;;8249963;28;19914;-74
2020/12/04 12:27:40;;;;;;;;;;;2.70;99.90;;;;;;8240249;28;19918;-74
2020/12/04 12:31:41;;;;;;;;;;;2.70;99.90;;;;;;8263742;28;20374;-73
2020/12/04 12:35:41;;;;;;;;;;;2.90;99.90;;;;;;8245042;28;19957;-74
2020/12/04 12:39:42;;;;;;;;;;;2.90;99.90;;;;;;8251385;28;19914;-73
2020/12/04 12:43:42;;;;;;;;;;;3.00;99.90;;;;;;8259935;28;19952;-74
2020/12/04 12:47:43;;;;;;;;;;;2.90;99.90;;;;;;8244190;28;19914;-74
2020/12/04 12:51:43;;;;;;;;;;;2.80;99.90;;;;;;8253634;28;20417;-74
2020/12/04 12:55:44;;;;;;;;;;;2.80;99.90;;;;;;8254624;28;20287;-73
2020/12/04 12:59:44;;;;;;;;;;;2.60;99.90;;;;;;8265900;28;19909;-73
2020/12/04 13:03:45;;;;;;;;;;;2.60;99.90;;;;;;8260940;28;20011;-74
2020/12/04 13:07:45;;;;;;;;;;;2.60;99.90;;;;;;8245795;28;19945;-73
2020/12/04 13:11:46;;;;;;;;;;;2.60;99.90;;;;;;8246760;28;20422;-73
2020/12/04 13:15:49;;;;;;;;;;;2.50;99.90;;;;;;8248645;28;19940;-73
2020/12/04 13:19:50;;;;;;;;;;;2.60;99.90;;;;;;8265053;28;19909;-74
2020/12/04 13:23:50;;;;;;;;;;;2.50;99.90;;;;;;8253339;28;20013;-73
2020/12/04 13:27:51;;;;;;;;;;;2.50;99.90;;;;;;8251051;28;19957;-73
2020/12/04 13:31:52;;;;;;;;;;;2.40;99.90;;;;;;8264559;28;19914;-73
2020/12/04 13:35:53;;;;;;;;;;;2.30;99.90;;;;;;8263444;28;20371;-74
2020/12/04 13:39:53;;;;;;;;;;;2.20;99.90;;;;;;8263452;28;20013;-73
2020/12/04 13:43:54;;;;;;;;;;;2.10;99.90;;;;;;8264760;28;19910;-74
2020/12/04 13:47:54;;;;;;;;;;;2.20;99.90;;;;;;8264896;28;19921;-73
2020/12/04 13:51:55;;;;;;;;;;;1.80;99.90;;;;;;8257027;28;19925;-73
2020/12/04 13:55:55;;;;;;;;;;;2.00;99.90;;;;;;8256487;28;19921;-74
2020/12/04 13:59:56;;;;;;;;;;;1.90;99.90;;;;;;8254842;28;19914;-73
2020/12/04 14:03:56;;;;;;;;;;;1.70;99.90;;;;;;8245945;28;19914;-73
2020/12/04 14:07:57;;;;;;;;;;;1.60;99.90;;;;;;8251164;28;19914;-74
2020/12/04 14:11:57;;;;;;;;;;;1.80;99.90;;;;;;8261294;28;19917;-73
2020/12/04 14:15:58;;;;;;;;;;;1.80;99.90;;;;;;8239107;28;19925;-74
2020/12/04 14:19:58;;;;;;;;;;;1.80;99.90;;;;;;8257657;28;19921;-73
2020/12/04 14:23:59;;;;;;;;;;;1.80;99.90;;;;;;8263994;28;19999;-73
2020/12/04 14:27:59;;;;;;;;;;;1.70;99.90;;;;;;8256391;28;19913;-74
2020/12/04 14:32:00;;;;;;;;;;;1.60;99.90;;;;;;8259849;28;19918;-73
2020/12/04 14:36:00;;;;;;;;;;;1.60;99.90;;;;;;8261171;28;19961;-73
2020/12/04 14:40:46;;;;;;;;;;;1.40;99.90;;;;;;8255149;28;19921;-73
2020/12/04 14:44:21;;;;;;;;;;;1.30;99.90;;;;;;8256790;28;19954;-73
2020/12/04 14:48:22;;;;;;;;;;;1.30;99.90;;;;;;8253880;28;20008;-73
2020/12/04 14:52:23;;;;;;;;;;;1.10;99.90;;;;;;8241364;28;20407;-73
2020/12/04 14:56:24;;;;;;;;;;;1.00;99.90;;;;;;8246728;28;20038;-72
2020/12/04 15:00:25;;;;;;;;;;;1.00;99.90;;;;;;8243185;28;20012;-72
2020/12/04 15:04:25;;;;;;;;;;;1.00;99.90;;;;;;8238069;28;19922;-72
2020/12/04 15:08:28;;;;;;;;;;;0.90;99.90;;;;;;8233693;28;19910;-73
2020/12/04 15:12:28;;;;;;;44.70;24.55;;;0.90;99.90;;;;;;8241810;28;20443;-72
2020/12/04 15:16:29;;;;;;;39.83;18.65;;;0.70;99.90;;;;;;8242453;28;20026;-73
2020/12/04 15:20:29;;;;;;;36.00;17.60;;;0.60;99.90;;;;;;8233148;28;20034;-71
2020/12/04 15:24:30;;;;;;;42.28;21.10;;;0.70;99.90;;;;;;8244058;28;20030;-71
2020/12/04 15:28:30;;;;;;;43.03;19.75;;;0.60;99.90;;;;;;8237652;28;20038;-71
2020/12/04 15:32:31;;;;;;;47.08;21.90;;;0.40;99.90;;;;;;8229211;28;20030;-71
2020/12/04 15:36:32;;;;;;;44.60;20.15;;;0.30;99.90;;;;;;8251264;28;20408;-71
2020/12/04 15:40:34;;;;;;;44.35;20.50;;;0.40;99.90;;;;;;8256039;28;20393;-72
2020/12/04 15:44:35;;;;;;;41.50;21.02;;;0.30;99.90;;;;;;8255565;28;20022;-70
2020/12/04 15:48:35;;;;;;;50.00;22.42;;;0.20;99.90;;;;;;8258028;28;20030;-70
2020/12/04 15:52:36;;;;;;;51.05;23.55;;;0.20;99.90;;;;;;8253543;28;20037;-70
2020/12/04 15:56:37;;;;;;;45.58;21.30;;;0.30;99.90;;;;;;8258737;28;20049;-70
2020/12/04 16:00:39;;;;;;;47.30;20.90;;;0.50;99.90;;;;;;8253349;28;20026;-70
2020/12/04 16:04:40;;;;;;;49.90;23.13;;;0.50;99.90;;;;;;8253560;28;20050;-68
2020/12/04 16:08:40;;;;;;;45.50;22.63;;;0.40;99.90;;;;;;8254447;28;20030;-70
2020/12/04 16:12:41;;;;;;;49.53;23.65;;;0.40;99.90;;;;;;8252397;28;20058;-71
2020/12/04 16:16:45;;;;;;;46.45;22.80;;;0.50;99.90;;;;;;8259063;28;20042;-71
2020/12/04 16:20:46;;;;;;;48.03;22.95;;;0.40;99.90;;;;;;8255845;28;20033;-71
2020/12/04 16:24:47;;;;;;;49.53;23.70;;;0.50;99.90;;;;;;8257509;28;20023;-71
2020/12/04 16:28:47;;;;;;;46.97;22.98;;;0.30;99.90;;;;;;8259610;28;20064;-71
2020/12/04 16:32:48;;;;;;;50.10;22.90;;;0.30;99.90;;;;;;8265382;28;20026;-70
2020/12/04 16:36:48;;;;;;;54.95;23.65;;;0.10;99.90;;;;;;8265645;28;20029;-71
2020/12/04 16:40:49;;;;;;;49.80;23.83;;;-0.10;99.90;;;;;;8266796;28;20061;-71
2020/12/04 16:44:50;;;;;;;46.55;22.50;;;-0.20;99.90;;;;;;8266679;28;20059;-70
2020/12/04 16:48:50;;;;;;;48.15;22.20;;;0.00;99.90;;;;;;8267038;28;20033;-71
2020/12/04 16:52:51;;;;;;;52.58;23.60;;;0.10;99.90;;;;;;8265348;28;20026;-71
2020/12/04 16:56:51;;;;;;;51.67;23.70;;;0.20;99.90;;;;;;8266332;28;20031;-71
2020/12/04 17:00:52;;;;;;;52.15;23.52;;;-0.10;99.90;;;;;;8266214;28;20030;-71
2020/12/04 17:04:52;;;;;;;50.30;22.55;;;-0.20;99.90;;;;;;8266039;28;20029;-71
2020/12/04 17:08:53;;;;;;;47.60;23.08;;;0.10;99.90;;;;;;8265888;28;20488;-71
2020/12/04 17:12:54;;;;;;;52.05;24.45;;;0.00;99.90;;;;;;8265840;28;20105;-70
2020/12/04 17:16:55;;;;;;;54.58;24.17;;;-0.20;99.90;;;;;;8264610;28;20030;-71
2020/12/04 17:20:55;;;;;;;50.72;24.25;;;-0.40;99.90;;;;;;8264103;28;20052;-72
2020/12/04 17:24:56;;;;;;;56.25;24.85;;;-0.50;99.90;;;;;;8265552;28;20034;-70
2020/12/04 17:28:58;;;;;;;52.83;23.95;;;-0.40;99.90;;;;;;8263875;28;20061;-70
2020/12/04 17:32:59;;;;;;;50.05;24.42;;;-0.40;99.90;;;;;;8265168;28;20023;-71
2020/12/04 17:37:00;;;;;;;51.65;24.23;;;-0.50;99.90;;;;;;8264047;28;20356;-70
2020/12/04 17:41:01;;;;;;;65.88;31.95;;;-0.40;99.90;;;;;;8263379;28;20110;-71
2020/12/04 17:45:03;;;;;;;60.55;28.05;;;-0.30;99.90;;;;;;8263142;28;20026;-71
2020/12/04 17:49:03;;;;;;;71.90;35.22;;;-0.10;99.90;;;;;;8264750;28;20435;-71
2020/12/04 17:53:04;;;;;;;61.78;28.38;;;-0.10;99.90;;;;;;8264843;28;20089;-71
2020/12/04 17:57:05;;;;;;;63.45;29.20;;;0.00;99.90;;;;;;8264467;28;20070;-70
2020/12/04 18:01:06;;;;;;;60.30;25.30;;;-0.20;99.90;;;;;;8264213;28;20046;-70
2020/12/04 18:05:07;;;;;;;51.72;24.50;;;-0.30;99.90;;;;;;8264122;28;20025;-71
2020/12/04 18:09:07;;;;;;;55.50;26.23;;;-0.10;99.90;;;;;;8264202;28;20495;-71
2020/12/04 18:13:08;;;;;;;62.17;27.65;;;-0.40;99.90;;;;;;8264011;28;20065;-71
2020/12/04 18:17:09;;;;;;;60.75;28.13;;;-0.20;99.90;;;;;;8263694;28;20037;-71
2020/12/04 18:21:10;;;;;;;51.72;23.85;;;-0.40;99.90;;;;;;8262409;28;20030;-71
2020/12/04 18:25:11;;;;;;;49.95;24.08;;;-0.50;99.90;;;;;;8262407;28;20121;-70
2020/12/04 18:29:11;;;;;;;57.13;24.67;;;-0.20;99.90;;;;;;8262013;28;20130;-70
2020/12/04 18:33:12;;;;;;;55.72;25.08;;;-0.10;99.90;;;;;;8259399;28;20039;-71
2020/12/04 18:37:12;;;;;;;53.95;24.75;;;-0.20;99.90;;;;;;8261637;28;20529;-71
2020/12/04 18:41:17;;;;;;;56.42;25.13;;;-0.50;99.90;;;;;;8261520;28;20038;-71
2020/12/04 18:45:18;;;;;;;50.60;24.10;;;-0.60;99.90;;;;;;8261637;28;20023;-71
2020/12/04 18:49:19;;;;;;;51.47;23.98;;;-0.70;99.90;;;;;;8262577;28;20061;-71
2020/12/04 18:53:20;;;;;;;53.33;22.90;;;-0.60;99.90;;;;;;8262734;28;20117;-71
2020/12/04 18:57:21;;;;;;;50.65;22.38;;;-0.40;99.90;;;;;;8262760;28;20022;-69
2020/12/04 19:01:24;;;;;;;47.25;21.35;;;-0.30;99.90;;;;;;8260957;28;20113;-70
2020/12/04 19:05:25;;;;;;;51.50;24.42;;;-0.40;99.90;;;;;;8251310;28;20026;-70
2020/12/04 19:09:25;;;;;;;51.67;24.20;;;-0.60;99.90;;;;;;8262264;28;20476;-70
2020/12/04 19:13:26;;;;;;;56.55;24.83;;;-0.50;99.90;;;;;;8262031;28;20030;-70
2020/12/04 19:17:27;;;;;;;52.60;23.17;;;-0.60;99.90;;;;;;8261928;28;20084;-70
2020/12/04 19:21:27;;;;;;;51.53;23.42;;;-0.60;99.90;;;;;;8260748;28;20030;-70
2020/12/04 19:25:28;;;;;;;50.15;23.83;;;-0.70;99.90;;;;;;8261500;28;20054;-71
2020/12/04 19:29:30;;;;;;;47.45;22.27;;;-0.70;99.90;;;;;;8293853;28;21296;-71
2020/12/04 19:33:30;;;;;;;49.55;21.98;;;-0.60;99.90;;;;;;8292963;28;20030;-70
2020/12/04 19:37:31;;;;;;;54.67;24.00;;;-0.50;99.90;;;;;;8277941;28;20068;-71
2020/12/04 19:41:31;;;;;;;51.38;23.25;;;-0.60;99.90;;;;;;8288592;28;20030;-70
2020/12/04 19:45:32;;;;;;;56.65;27.20;;;-0.70;99.90;;;;;;8293842;28;20445;-70
2020/12/04 19:49:33;;;;;;;58.42;26.33;;;-0.70;99.90;;;;;;8293612;28;20030;-71
2020/12/04 19:53:34;;;;;;;58.08;26.80;;;-0.70;99.90;;;;;;8293546;28;20029;-70
2020/12/04 19:57:34;;;;;;;51.95;23.08;;;-0.90;99.90;;;;;;8293897;28;20022;-70
2020/12/04 20:01:35;;;;;;;38.15;16.20;;;-0.80;99.90;;;;;;8291814;28;20491;-70
2020/12/04 20:05:35;;;;;;;50.95;22.70;;;-0.70;99.90;;;;;;8295698;28;20033;-71
2020/12/04 20:09:36;;;;;;;53.58;23.85;;;-0.90;99.90;;;;;;8300116;28;20030;-71
2020/12/04 20:13:39;;;;;;;58.28;24.67;;;-0.80;99.90;;;;;;8320058;22;20466;-71
2020/12/04 20:17:40;;;;;;;54.00;23.90;;;-0.60;99.90;;;;;;8298201;28;20014;-72
2020/12/04 20:21:41;;;;;;;54.25;23.88;;;-0.70;99.90;;;;;;8299371;28;20080;-73
2020/12/04 20:25:42;;;;;;;52.00;23.75;;;-0.60;99.90;;;;;;8298072;28;20018;-71
2020/12/04 20:29:42;;;;;;;52.03;23.77;;;-0.50;99.90;;;;;;8298559;28;20060;-72
2020/12/04 20:33:43;;;;;;;55.13;23.63;;;-0.50;99.90;;;;;;8297979;28;20034;-72
2020/12/04 20:37:43;;;;;;;50.20;24.20;;;-0.60;99.90;;;;;;8299115;28;20391;-71
2020/12/04 20:41:47;;;;;;;52.88;24.60;;;-0.70;99.90;;;;;;8297030;28;20038;-72
2020/12/04 20:45:48;;;;;;;56.17;24.67;;;-0.80;99.90;;;;;;8279427;28;20034;-72
2020/12/04 20:49:49;;;;;;;52.60;22.33;;;-0.50;99.90;;;;;;8290611;28;20034;-70
2020/12/04 20:53:49;;;;;;;55.58;23.83;;;-0.50;99.90;;;;;;8286556;28;20124;-71
2020/12/04 20:57:50;;;;;;;56.28;23.48;;;-0.60;99.90;;;;;;8286504;28;20024;-69
2020/12/04 21:01:51;;;;;;;55.10;24.88;;;-0.70;99.90;;;;;;8287432;28;20026;-70
2020/12/04 21:05:52;;;;;;;62.30;24.73;;;-0.90;99.90;;;;;;8277660;28;20512;-69
2020/12/04 21:09:52;;;;;;;54.45;23.55;;;-0.90;99.90;;;;;;8285961;28;20034;-69
2020/12/04 21:13:53;;;;;;;51.75;24.70;;;-1.00;99.90;;;;;;8290083;28;20100;-69
2020/12/04 21:17:54;;;;;;;54.03;25.20;;;-1.00;99.90;;;;;;8289056;28;20049;-69
2020/12/04 21:21:55;;;;;;;60.42;25.83;;;-0.60;99.90;;;;;;8292461;28;20034;-69
2020/12/04 21:25:56;;;;;;;54.75;25.02;;;-0.90;99.90;;;;;;8293838;28;20078;-69
2020/12/04 21:29:56;;;;;;;73.20;30.00;;;-0.90;99.90;;;;;;8292980;28;20044;-68
2020/12/04 21:33:57;;;;;;;62.25;27.63;;;-0.60;99.90;;;;;;8295827;28;20034;-69
2020/12/04 21:37:57;;;;;;;59.47;25.50;;;-0.70;99.90;;;;;;8288251;28;20089;-68
2020/12/04 21:41:58;;;;;;;59.65;26.98;;;-0.50;99.90;;;;;;8280045;28;20527;-69
2020/12/04 21:45:59;;;;;;;57.10;25.52;;;-0.60;99.90;;;;;;8282851;28;20431;-69
2020/12/04 21:50:00;;;;;;;56.78;26.30;;;-0.70;99.90;;;;;;8294829;28;20026;-69
2020/12/04 21:54:00;;;;;;;52.95;24.27;;;-0.80;99.90;;;;;;8291109;28;20037;-69
2020/12/04 21:58:01;;;;;;;56.25;26.13;;;-0.80;99.90;;;;;;8295477;28;20521;-70
2020/12/04 22:02:03;;;;;;;59.05;25.77;;;-0.80;99.90;;;;;;8295443;28;20026;-69
2020/12/04 22:06:05;;;;;;;61.40;25.95;;;-0.60;99.90;;;;;;8269243;28;20030;-70
2020/12/04 22:10:06;;;;;;;59.22;25.23;;;-0.70;99.90;;;;;;8260507;28;20121;-69
2020/12/04 22:14:07;;;;;;;55.85;24.45;;;-0.40;99.90;;;;;;8263721;28;20060;-70
2020/12/04 22:18:07;;;;;;;15.73;7.95;;;-0.30;99.90;;;;;;8263068;28;20050;-69
2020/12/04 22:22:08;;;;;;;54.08;24.40;;;-0.50;99.90;;;;;;8262594;28;20442;-69
2020/12/04 22:26:35;;;;;;;50.08;23.48;;;-0.90;99.90;;;;;;8263563;28;20030;-69
2020/12/04 22:30:35;;;;;;;54.25;23.45;;;-1.20;99.90;;;;;;8262278;28;20062;-69